Time;durP1;ratioP1;P1;durP2;ratioP2;P2;SDS_P1;SDS_P2;PMS_P1;PMS_P2;Temp;Humidity;BMP_temperature;BMP_pressure;BME280_temperature;BME280_humidity;BME280_pressure;Samples;Min_cycle;Max_cycle;Signal;HPM_P1;HPM_P2
2023/12/19 00:00:27;;;;;;;20.90;9.97;;;2.20;99.90;;;;;;4933185;29;20335;-59
2023/12/19 00:02:53;;;;;;;26.20;11.07;;;2.20;99.90;;;;;;4933775;29;20198;-52
2023/12/19 00:05:18;;;;;;;21.87;10.43;;;2.20;99.90;;;;;;4933779;29;20179;-55
2023/12/19 00:07:45;;;;;;;25.20;10.77;;;2.30;99.90;;;;;;4933561;29;20547;-56
2023/12/19 00:10:11;;;;;;;21.27;10.17;;;2.20;99.90;;;;;;4933100;29;20270;-52
2023/12/19 00:12:37;;;;;;;23.30;10.93;;;2.30;99.90;;;;;;4933699;29;20603;-52
2023/12/19 00:15:04;;;;;;;20.53;9.87;;;2.30;99.90;;;;;;4933590;29;20187;-56
2023/12/19 00:17:29;;;;;;;20.67;10.33;;;2.30;99.90;;;;;;4933773;29;20302;-57
2023/12/19 00:19:56;;;;;;;21.30;9.93;;;2.30;99.90;;;;;;4932765;29;20219;-53
2023/12/19 00:22:22;;;;;;;21.47;10.47;;;2.30;99.90;;;;;;4932781;29;20214;-53
2023/12/19 00:24:48;;;;;;;20.90;10.13;;;2.40;99.90;;;;;;4933379;29;20214;-57
2023/12/19 00:27:14;;;;;;;19.90;9.43;;;2.40;99.90;;;;;;4933546;29;20182;-55
2023/12/19 00:29:40;;;;;;;21.40;9.53;;;2.40;99.90;;;;;;4931601;29;20274;-53
2023/12/19 00:32:06;;;;;;;18.77;9.40;;;2.40;99.90;;;;;;4933298;29;20183;-53
2023/12/19 00:34:31;;;;;;;22.43;10.40;;;2.50;99.90;;;;;;4933334;29;20191;-52
2023/12/19 00:36:57;;;;;;;20.80;10.50;;;2.50;99.90;;;;;;4933033;29;20226;-55
2023/12/19 00:39:22;;;;;;;21.17;10.30;;;2.50;99.90;;;;;;4932535;29;20207;-56
2023/12/19 00:41:48;;;;;;;20.97;9.57;;;2.40;99.90;;;;;;4933339;29;20219;-54
2023/12/19 00:44:13;;;;;;;23.30;10.63;;;2.40;99.90;;;;;;4933372;29;20187;-55
2023/12/19 00:46:43;;;;;;;20.03;9.87;;;2.40;99.90;;;;;;4933306;29;20332;-55
2023/12/19 00:49:12;;;;;;;21.27;9.70;;;2.40;99.90;;;;;;4932516;29;20367;-53
2023/12/19 00:51:37;;;;;;;22.53;10.20;;;2.30;99.90;;;;;;4933158;29;20202;-57
2023/12/19 00:54:03;;;;;;;22.70;10.00;;;2.30;99.90;;;;;;4933082;29;20187;-55
2023/12/19 00:56:30;;;;;;;22.43;10.57;;;2.30;99.90;;;;;;4933256;29;20245;-53
2023/12/19 00:58:56;;;;;;;20.70;9.73;;;2.30;99.90;;;;;;4932284;29;20194;-53
2023/12/19 01:01:23;;;;;;;22.83;10.33;;;2.40;99.90;;;;;;4932871;29;20218;-56
2023/12/19 01:03:49;;;;;;;21.13;10.20;;;2.40;99.90;;;;;;4932891;29;20198;-52
2023/12/19 01:06:14;;;;;;;22.87;10.43;;;2.40;99.90;;;;;;4933072;29;20334;-57
2023/12/19 01:08:40;;;;;;;22.63;10.57;;;2.40;99.90;;;;;;4932504;29;20692;-56
2023/12/19 01:11:09;;;;;;;22.57;11.30;;;2.40;99.90;;;;;;4933046;29;20350;-55
2023/12/19 01:13:35;;;;;;;24.60;11.67;;;2.50;99.90;;;;;;4932827;29;20190;-54
2023/12/19 01:16:00;;;;;;;30.43;12.77;;;2.60;99.90;;;;;;4932884;29;20211;-56
2023/12/19 01:18:26;;;;;;;27.30;12.77;;;2.60;99.90;;;;;;4932372;29;20281;-56
2023/12/19 01:20:51;;;;;;;28.20;12.37;;;2.60;99.90;;;;;;4932442;29;20219;-54
2023/12/19 01:23:17;;;;;;;25.47;11.53;;;2.60;99.90;;;;;;4933248;29;20683;-53
2023/12/19 01:25:43;;;;;;;22.90;11.27;;;2.60;99.90;;;;;;4932860;29;20274;-56
2023/12/19 01:28:09;;;;;;;24.93;11.50;;;2.60;99.90;;;;;;4932902;29;20700;-56
2023/12/19 01:30:35;;;;;;;25.13;12.07;;;2.60;99.90;;;;;;4932412;29;20237;-53
2023/12/19 01:33:01;;;;;;;24.03;11.80;;;2.60;99.90;;;;;;4934187;29;20215;-55
2023/12/19 01:35:26;;;;;;;22.17;10.83;;;2.60;99.90;;;;;;4936593;29;20213;-54
2023/12/19 01:37:52;;;;;;;22.10;11.27;;;2.60;99.90;;;;;;4936383;29;20191;-56
2023/12/19 01:40:17;;;;;;;24.80;11.33;;;2.60;99.90;;;;;;4936107;29;20210;-56
2023/12/19 01:42:43;;;;;;;24.53;11.60;;;2.60;99.90;;;;;;4936349;29;20238;-54
2023/12/19 01:45:11;;;;;;;25.37;11.03;;;2.70;99.90;;;;;;4936471;29;20195;-52
2023/12/19 01:47:44;;;;;;;24.43;11.27;;;2.70;99.90;;;;;;4936236;29;20242;-54
2023/12/19 01:50:14;;;;;;;25.63;12.53;;;2.70;99.90;;;;;;4935964;29;20207;-56
2023/12/19 01:52:44;;;;;;;26.07;11.57;;;2.70;99.90;;;;;;4936370;29;20199;-57
2023/12/19 01:55:11;;;;;;;24.47;12.13;;;2.70;99.90;;;;;;4928726;29;20195;-56
2023/12/19 01:57:38;;;;;;;27.40;11.47;;;2.70;99.90;;;;;;4936127;29;20198;-53
2023/12/19 02:00:05;;;;;;;24.93;12.13;;;2.60;99.90;;;;;;4935075;29;20226;-54
2023/12/19 02:02:31;;;;;;;23.93;11.87;;;2.70;99.90;;;;;;4935950;29;20218;-56
2023/12/19 02:04:57;;;;;;;24.23;10.83;;;2.70;99.90;;;;;;4935940;29;20187;-53
2023/12/19 02:07:23;;;;;;;29.73;12.57;;;2.60;99.90;;;;;;4936183;29;20250;-52
2023/12/19 02:09:49;;;;;;;25.23;11.60;;;2.60;99.90;;;;;;4935391;29;20689;-52
2023/12/19 02:12:15;;;;;;;24.57;12.30;;;2.60;99.90;;;;;;4936000;29;20625;-54
2023/12/19 02:14:43;;;;;;;26.77;11.77;;;2.60;99.90;;;;;;4936131;29;20198;-56
2023/12/19 02:17:08;;;;;;;28.23;12.37;;;2.70;99.90;;;;;;4935949;29;20563;-56
2023/12/19 02:19:45;;;;;;;26.57;11.97;;;2.60;99.90;;;;;;4935210;29;20207;-52
2023/12/19 02:22:11;;;;;;;24.47;11.33;;;2.60;99.90;;;;;;4936152;29;20247;-52
2023/12/19 02:24:37;;;;;;;26.33;12.30;;;2.60;99.90;;;;;;4935829;29;20281;-52
2023/12/19 02:27:03;;;;;;;29.33;12.43;;;2.60;99.90;;;;;;4935480;29;20195;-55
2023/12/19 02:29:29;;;;;;;27.10;12.33;;;2.60;99.90;;;;;;4934935;29;20221;-52
2023/12/19 02:31:55;;;;;;;25.80;12.53;;;2.60;99.90;;;;;;4935423;29;20191;-54
2023/12/19 02:34:21;;;;;;;25.77;12.50;;;2.70;99.90;;;;;;4935796;29;20215;-54
2023/12/19 02:36:47;;;;;;;27.47;13.10;;;2.80;99.90;;;;;;4935525;29;20595;-52
2023/12/19 02:39:13;;;;;;;32.50;13.87;;;2.80;99.90;;;;;;4934774;29;20274;-54
2023/12/19 02:41:38;;;;;;;31.50;14.20;;;2.80;99.90;;;;;;4935560;29;20589;-53
2023/12/19 02:44:04;;;;;;;28.20;13.53;;;2.80;99.90;;;;;;4934935;29;20194;-53
2023/12/19 02:46:30;;;;;;;32.20;13.07;;;2.80;99.90;;;;;;4935398;29;20191;-54
2023/12/19 02:48:55;;;;;;;27.57;13.03;;;2.80;99.90;;;;;;4934523;29;20278;-57
2023/12/19 02:51:21;;;;;;;33.80;14.73;;;2.80;99.90;;;;;;4935255;29;20728;-56
2023/12/19 02:53:47;;;;;;;31.63;14.00;;;2.70;99.90;;;;;;4935359;29;20226;-51
2023/12/19 02:56:12;;;;;;;30.97;13.60;;;2.70;99.90;;;;;;4935311;29;20184;-51
2023/12/19 02:58:39;;;;;;;27.60;13.23;;;2.80;99.90;;;;;;4934285;29;20295;-52
2023/12/19 03:01:08;;;;;;;27.80;12.50;;;2.80;99.90;;;;;;4934778;29;20278;-56
2023/12/19 03:03:33;;;;;;;29.77;13.17;;;2.80;99.90;;;;;;4935114;29;20266;-52
2023/12/19 03:06:00;;;;;;;28.70;13.23;;;2.90;99.90;;;;;;4934933;29;20735;-54
2023/12/19 03:08:26;;;;;;;27.60;12.27;;;2.90;99.90;;;;;;4934549;29;20233;-56
2023/12/19 03:10:52;;;;;;;30.37;13.87;;;2.90;99.90;;;;;;4934532;29;20829;-51
2023/12/19 03:13:17;;;;;;;29.53;13.63;;;2.90;99.90;;;;;;4934879;29;20278;-54
2023/12/19 03:15:43;;;;;;;27.50;12.67;;;3.00;99.90;;;;;;4934842;29;20195;-51
2023/12/19 03:18:09;;;;;;;32.60;13.13;;;3.00;99.90;;;;;;4934694;29;20179;-52
2023/12/19 03:20:35;;;;;;;30.37;13.00;;;3.00;99.90;;;;;;4933892;29;20207;-56
2023/12/19 03:23:01;;;;;;;29.87;12.87;;;3.00;99.90;;;;;;4934329;29;20198;-52
2023/12/19 03:25:27;;;;;;;28.80;13.03;;;3.00;99.90;;;;;;4934618;29;20179;-52
2023/12/19 03:27:52;;;;;;;28.70;13.73;;;3.10;99.90;;;;;;4934296;29;20756;-52
2023/12/19 03:30:18;;;;;;;30.07;13.70;;;3.10;99.90;;;;;;4933864;29;20230;-54
2023/12/19 03:32:43;;;;;;;30.53;13.53;;;3.10;99.90;;;;;;4934641;29;20653;-57
2023/12/19 03:35:11;;;;;;;27.93;12.77;;;3.10;99.90;;;;;;4926896;29;20194;-51
2023/12/19 03:37:37;;;;;;;31.00;13.07;;;3.10;99.90;;;;;;4934437;29;20688;-53
2023/12/19 03:40:04;;;;;;;28.87;12.77;;;3.00;99.90;;;;;;4933594;29;20240;-51
2023/12/19 03:42:30;;;;;;;29.37;13.03;;;3.00;99.90;;;;;;4934227;29;21008;-52
2023/12/19 03:44:55;;;;;;;28.70;12.80;;;3.00;99.90;;;;;;4934297;29;20202;-51
2023/12/19 03:47:21;;;;;;;33.47;13.73;;;3.00;99.90;;;;;;4934302;29;20178;-53
2023/12/19 03:49:46;;;;;;;29.67;13.30;;;3.00;99.90;;;;;;4933474;29;20218;-52
2023/12/19 03:52:12;;;;;;;31.33;13.23;;;3.10;99.90;;;;;;4934069;29;20568;-56
2023/12/19 03:54:37;;;;;;;30.37;13.23;;;3.10;99.90;;;;;;4933862;29;20270;-52
2023/12/19 03:57:03;;;;;;;27.47;13.27;;;3.10;99.90;;;;;;4932712;29;20560;-54
2023/12/19 03:59:29;;;;;;;30.70;13.23;;;3.10;99.90;;;;;;4933162;29;20225;-54
2023/12/19 04:01:56;;;;;;;30.77;13.00;;;3.20;99.90;;;;;;4934012;29;20231;-55
2023/12/19 04:04:22;;;;;;;29.67;13.07;;;3.20;99.90;;;;;;4934071;29;20194;-52
2023/12/19 04:06:47;;;;;;;26.23;13.33;;;3.20;99.90;;;;;;4933753;29;20187;-54
2023/12/19 04:09:13;;;;;;;30.83;13.90;;;3.20;99.90;;;;;;4933077;29;20194;-52
2023/12/19 04:11:46;;;;;;;31.87;14.07;;;3.20;99.90;;;;;;4933730;29;20195;-55
2023/12/19 04:14:12;;;;;;;29.67;14.17;;;3.20;99.90;;;;;;4933709;29;20187;-51
2023/12/19 04:16:38;;;;;;;37.17;13.50;;;3.20;99.90;;;;;;4933712;29;20703;-52
2023/12/19 04:19:03;;;;;;;33.87;14.83;;;3.10;99.90;;;;;;4932943;29;20193;-52
2023/12/19 04:21:29;;;;;;;31.77;13.83;;;3.00;99.90;;;;;;4933571;29;20317;-52
2023/12/19 04:23:54;;;;;;;29.63;13.23;;;3.10;99.90;;;;;;4933512;29;20676;-55
2023/12/19 04:26:20;;;;;;;28.07;14.07;;;3.10;99.90;;;;;;4933454;29;20684;-56
2023/12/19 04:28:49;;;;;;;30.03;12.93;;;3.10;99.90;;;;;;4932881;29;20227;-53
2023/12/19 04:31:14;;;;;;;28.27;13.00;;;3.20;99.90;;;;;;4933474;29;20234;-57
2023/12/19 04:33:40;;;;;;;34.07;13.93;;;3.10;99.90;;;;;;4933448;29;20203;-55
2023/12/19 04:36:12;;;;;;;33.07;14.50;;;3.10;99.90;;;;;;4933297;29;20190;-53
2023/12/19 04:38:39;;;;;;;34.90;14.80;;;3.20;99.90;;;;;;4932631;29;20282;-54
2023/12/19 04:41:05;;;;;;;39.73;15.30;;;3.20;99.90;;;;;;4932979;29;20222;-52
2023/12/19 04:43:31;;;;;;;35.50;14.93;;;3.20;99.90;;;;;;4933285;29;20282;-53
2023/12/19 04:45:56;;;;;;;33.40;14.43;;;3.20;99.90;;;;;;4933199;29;20278;-53
2023/12/19 04:48:22;;;;;;;35.83;14.70;;;3.30;99.90;;;;;;4932970;29;20205;-51
2023/12/19 04:50:47;;;;;;;33.33;13.67;;;3.20;99.90;;;;;;4932542;29;20207;-51
2023/12/19 04:53:13;;;;;;;34.93;13.90;;;3.30;99.90;;;;;;4933097;29;20179;-56
2023/12/19 04:55:38;;;;;;;29.57;14.10;;;3.30;99.90;;;;;;4933101;29;20198;-55
2023/12/19 04:58:04;;;;;;;30.47;13.77;;;3.30;99.90;;;;;;4932952;29;20250;-52
2023/12/19 05:00:29;;;;;;;31.27;14.77;;;3.30;99.90;;;;;;4931995;29;20293;-56
2023/12/19 05:02:55;;;;;;;33.00;14.70;;;3.40;99.90;;;;;;4932909;29;20306;-55
2023/12/19 05:05:21;;;;;;;35.30;14.33;;;3.20;99.90;;;;;;4933117;29;20323;-52
2023/12/19 05:07:47;;;;;;;33.43;15.00;;;3.20;99.90;;;;;;4933827;29;20197;-52
2023/12/19 05:10:12;;;;;;;35.83;15.80;;;3.20;99.90;;;;;;4936483;29;20211;-52
2023/12/19 05:12:38;;;;;;;36.97;14.90;;;3.20;99.90;;;;;;4937174;29;20681;-53
2023/12/19 05:15:04;;;;;;;33.97;15.20;;;3.20;99.90;;;;;;4937088;29;20326;-54
2023/12/19 05:17:30;;;;;;;27.83;13.27;;;3.30;99.90;;;;;;4936630;29;20222;-52
2023/12/19 05:19:56;;;;;;;31.83;14.40;;;3.20;99.90;;;;;;4935765;29;20207;-54
2023/12/19 05:22:22;;;;;;;29.63;13.60;;;3.20;99.90;;;;;;4936630;29;20232;-55
2023/12/19 05:24:47;;;;;;;36.60;14.17;;;3.30;99.90;;;;;;4936583;29;20220;-52
2023/12/19 05:27:13;;;;;;;43.00;17.70;;;3.20;99.90;;;;;;4936928;29;20183;-52
2023/12/19 05:29:38;;;;;;;39.00;17.23;;;3.20;99.90;;;;;;4936154;29;20281;-53
2023/12/19 05:32:04;;;;;;;34.43;15.53;;;3.20;99.90;;;;;;4936640;29;20191;-55
2023/12/19 05:34:30;;;;;;;33.13;14.43;;;3.20;99.90;;;;;;4936718;29;20668;-51
2023/12/19 05:36:56;;;;;;;33.13;13.90;;;3.20;99.90;;;;;;4936346;29;20194;-54
2023/12/19 05:39:22;;;;;;;31.70;13.90;;;3.20;99.90;;;;;;4935990;29;20206;-52
2023/12/19 05:41:47;;;;;;;31.17;13.40;;;3.20;99.90;;;;;;4936492;29;20684;-53
2023/12/19 05:44:13;;;;;;;34.33;14.00;;;3.20;99.90;;;;;;4936441;29;20637;-54
2023/12/19 05:46:39;;;;;;;31.07;13.63;;;3.20;99.90;;;;;;4936474;29;20677;-55
2023/12/19 05:49:06;;;;;;;31.00;13.50;;;3.20;99.90;;;;;;4935666;29;20191;-53
2023/12/19 05:51:31;;;;;;;33.30;14.80;;;3.20;99.90;;;;;;4936221;29;20281;-52
2023/12/19 05:53:59;;;;;;;30.80;13.87;;;3.20;99.90;;;;;;4936325;29;20286;-51
2023/12/19 05:56:25;;;;;;;31.77;14.07;;;3.20;99.90;;;;;;4936414;29;20187;-51
2023/12/19 05:58:51;;;;;;;28.33;13.50;;;3.30;99.90;;;;;;4935237;29;20294;-54
2023/12/19 06:01:16;;;;;;;28.97;12.67;;;3.30;99.90;;;;;;4935908;29;20226;-55
2023/12/19 06:03:42;;;;;;;29.77;11.73;;;3.30;99.90;;;;;;4936150;29;20183;-52
2023/12/19 06:06:07;;;;;;;24.20;11.57;;;3.30;99.90;;;;;;4935854;29;20645;-51
2023/12/19 06:08:34;;;;;;;23.10;10.97;;;3.30;99.90;;;;;;4934448;29;20632;-51
2023/12/19 06:11:00;;;;;;;24.93;11.40;;;3.40;99.90;;;;;;4936141;29;20306;-50
2023/12/19 06:13:25;;;;;;;27.17;12.90;;;3.30;99.90;;;;;;4935469;29;20277;-51
2023/12/19 06:15:51;;;;;;;27.30;13.10;;;3.30;99.90;;;;;;4936186;29;20226;-55
2023/12/19 06:18:17;;;;;;;36.23;15.97;;;3.30;99.90;;;;;;4935919;29;20191;-52
2023/12/19 06:20:42;;;;;;;31.33;14.87;;;3.40;99.90;;;;;;4934105;29;20269;-56
2023/12/19 06:23:09;;;;;;;30.50;13.50;;;3.30;99.90;;;;;;4935965;29;20346;-53
2023/12/19 06:25:34;;;;;;;28.13;13.60;;;3.30;99.90;;;;;;4935650;29;20214;-55
2023/12/19 06:28:00;;;;;;;23.97;11.00;;;3.40;99.90;;;;;;4935609;29;20673;-53
2023/12/19 06:30:26;;;;;;;21.57;10.23;;;3.40;99.90;;;;;;4935131;29;20203;-52
2023/12/19 06:32:51;;;;;;;19.37;9.90;;;3.40;99.90;;;;;;4935823;29;20750;-54
2023/12/19 06:35:17;;;;;;;24.20;10.53;;;3.40;99.90;;;;;;4935976;29;20180;-55
2023/12/19 06:37:42;;;;;;;27.80;11.37;;;3.40;99.90;;;;;;4936183;29;20195;-52
2023/12/19 06:40:08;;;;;;;28.90;13.83;;;3.40;99.90;;;;;;4934961;29;20211;-55
2023/12/19 06:42:34;;;;;;;24.77;11.50;;;3.40;99.90;;;;;;4935908;29;20708;-53
2023/12/19 06:45:02;;;;;;;19.27;9.50;;;3.40;99.90;;;;;;4937145;29;20192;-55
2023/12/19 06:47:28;;;;;;;19.90;9.90;;;3.40;99.90;;;;;;4935532;29;20270;-53
2023/12/19 06:49:54;;;;;;;16.83;9.40;;;3.40;99.90;;;;;;4934362;29;20206;-53
2023/12/19 06:52:20;;;;;;;17.17;8.40;;;3.40;99.90;;;;;;4935288;29;20195;-56
2023/12/19 06:54:46;;;;;;;28.90;12.53;;;3.40;99.90;;;;;;4935339;29;20184;-55
2023/12/19 06:57:12;;;;;;;24.63;10.63;;;3.50;99.90;;;;;;4935188;29;20183;-52
2023/12/19 06:59:38;;;;;;;19.80;9.73;;;3.50;99.90;;;;;;4934612;29;20267;-52
2023/12/19 07:02:04;;;;;;;20.83;9.20;;;3.50;99.90;;;;;;4934955;29;20203;-52
2023/12/19 07:04:31;;;;;;;16.20;8.70;;;3.40;99.90;;;;;;4934927;29;20593;-57
2023/12/19 07:06:56;;;;;;;21.77;9.83;;;3.50;99.90;;;;;;4934766;29;20179;-55
2023/12/19 07:09:22;;;;;;;28.07;11.63;;;3.50;99.90;;;;;;4934492;29;20209;-54
2023/12/19 07:11:48;;;;;;;20.07;8.97;;;3.50;99.90;;;;;;4933381;29;20198;-55
2023/12/19 07:14:13;;;;;;;15.30;7.40;;;3.50;99.90;;;;;;4934745;29;20183;-55
2023/12/19 07:16:39;;;;;;;13.90;6.30;;;3.50;99.90;;;;;;4934898;29;20187;-53
2023/12/19 07:19:05;;;;;;;11.83;5.63;;;3.50;99.90;;;;;;4933831;29;20199;-52
2023/12/19 07:21:35;;;;;;;11.70;5.47;;;3.50;99.90;;;;;;4934518;29;20223;-51
2023/12/19 07:24:01;;;;;;;13.33;6.60;;;3.50;99.90;;;;;;4934800;29;20562;-56
2023/12/19 07:26:28;;;;;;;19.20;6.63;;;3.50;99.90;;;;;;4934645;29;20171;-55
2023/12/19 07:28:57;;;;;;;12.60;5.73;;;3.50;99.90;;;;;;4933501;29;20733;-54
2023/12/19 07:31:32;;;;;;;19.67;6.07;;;3.60;99.90;;;;;;4934386;29;20223;-52
2023/12/19 07:33:59;;;;;;;10.27;5.13;;;3.50;99.90;;;;;;4934367;29;20353;-55
2023/12/19 07:36:28;;;;;;;10.03;5.07;;;3.50;99.90;;;;;;4934363;29;20569;-52
2023/12/19 07:38:54;;;;;;;11.07;4.97;;;3.60;99.90;;;;;;4933671;29;20278;-55
2023/12/19 07:41:20;;;;;;;8.73;4.67;;;3.60;99.90;;;;;;4934180;29;20354;-54
2023/12/19 07:43:46;;;;;;;10.23;4.70;;;3.60;99.90;;;;;;4917140;29;20187;-54
2023/12/19 07:46:13;;;;;;;11.47;4.90;;;3.60;99.90;;;;;;4934315;29;20183;-52
2023/12/19 07:48:39;;;;;;;11.33;5.30;;;3.60;99.90;;;;;;4933650;29;20195;-52
2023/12/19 07:51:05;;;;;;;10.67;4.90;;;3.60;99.90;;;;;;4933943;29;20731;-55
2023/12/19 07:53:30;;;;;;;8.70;4.67;;;3.60;99.90;;;;;;4934088;29;20238;-56
2023/12/19 07:56:04;;;;;;;10.97;5.83;;;3.60;99.90;;;;;;4934040;29;20209;-52
2023/12/19 07:58:30;;;;;;;11.93;5.00;;;3.60;99.90;;;;;;4933416;29;20199;-53
2023/12/19 08:00:56;;;;;;;9.43;5.33;;;3.60;99.90;;;;;;4933646;29;20290;-54
2023/12/19 08:03:29;;;;;;;11.40;5.83;;;3.60;99.90;;;;;;4934027;29;20187;-51
2023/12/19 08:05:56;;;;;;;11.17;5.47;;;3.60;99.90;;;;;;4933663;29;20198;-53
2023/12/19 08:08:23;;;;;;;11.70;5.60;;;3.60;99.90;;;;;;4934094;29;20179;-51
2023/12/19 08:10:49;;;;;;;11.63;5.90;;;3.60;99.90;;;;;;4933271;29;20270;-54
2023/12/19 08:13:15;;;;;;;12.30;6.97;;;3.60;99.90;;;;;;4933561;29;20664;-52
2023/12/19 08:15:41;;;;;;;17.83;8.20;;;3.60;99.90;;;;;;4933819;29;20193;-52
2023/12/19 08:18:07;;;;;;;19.83;7.60;;;3.50;99.90;;;;;;4933612;29;20192;-52
2023/12/19 08:20:35;;;;;;;13.80;6.60;;;3.50;99.90;;;;;;4932818;29;20218;-54
2023/12/19 08:23:01;;;;;;;16.30;7.50;;;3.50;99.90;;;;;;4932871;29;20225;-56
2023/12/19 08:25:28;;;;;;;15.70;7.43;;;3.60;99.90;;;;;;4933258;29;20187;-54
2023/12/19 08:27:53;;;;;;;17.30;6.80;;;3.60;99.90;;;;;;4932749;29;20183;-53
2023/12/19 08:30:19;;;;;;;19.80;8.00;;;3.60;99.90;;;;;;4930734;29;20496;-52
2023/12/19 08:32:45;;;;;;;20.67;8.20;;;3.60;99.90;;;;;;4932145;29;20199;-54
2023/12/19 08:35:11;;;;;;;23.00;9.33;;;3.60;99.90;;;;;;4932221;29;20243;-53
2023/12/19 08:37:36;;;;;;;245.97;84.93;;;3.60;99.90;;;;;;4932384;29;20202;-52
2023/12/19 08:40:03;;;;;;;41.63;20.60;;;3.60;99.90;;;;;;4931519;29;20635;-52
2023/12/19 08:42:29;;;;;;;19.67;9.83;;;3.60;99.90;;;;;;4931624;29;20817;-53
2023/12/19 08:44:55;;;;;;;17.00;7.93;;;3.60;99.90;;;;;;4932270;29;20190;-54
2023/12/19 08:47:25;;;;;;;16.80;7.47;;;3.60;99.90;;;;;;4932220;29;20191;-55
2023/12/19 08:49:56;;;;;;;14.67;7.03;;;3.60;99.90;;;;;;4931749;29;20222;-53
2023/12/19 08:52:22;;;;;;;21.73;9.17;;;3.70;99.90;;;;;;4932578;29;20195;-54
2023/12/19 08:54:48;;;;;;;19.10;8.50;;;3.70;99.90;;;;;;4932419;29;20202;-52
2023/12/19 08:57:14;;;;;;;24.90;11.07;;;3.70;99.90;;;;;;4924989;29;20187;-52
2023/12/19 08:59:40;;;;;;;24.27;11.90;;;3.70;99.90;;;;;;4931636;29;20688;-57
2023/12/19 09:02:06;;;;;;;13.10;6.30;;;3.70;99.90;;;;;;4932443;29;20222;-55
2023/12/19 09:04:32;;;;;;;22.90;8.47;;;3.70;99.90;;;;;;4932526;29;20566;-54
2023/12/19 09:06:58;;;;;;;24.17;8.97;;;3.70;99.90;;;;;;4932831;29;20235;-52
2023/12/19 09:09:24;;;;;;;28.20;11.33;;;3.70;99.90;;;;;;4931657;29;20623;-55
2023/12/19 09:11:49;;;;;;;13.53;6.67;;;3.70;99.90;;;;;;4932612;29;20201;-54
2023/12/19 09:14:16;;;;;;;12.87;6.10;;;3.70;99.90;;;;;;4932428;29;20274;-55
2023/12/19 09:16:43;;;;;;;15.33;6.50;;;3.70;99.90;;;;;;4932443;29;20182;-55
2023/12/19 09:19:09;;;;;;;11.53;6.57;;;3.80;99.90;;;;;;4931689;29;20187;-55
2023/12/19 09:21:34;;;;;;;12.27;6.57;;;3.90;99.90;;;;;;4932160;29;20723;-54
2023/12/19 09:24:00;;;;;;;17.67;6.83;;;3.90;99.90;;;;;;4931996;29;20330;-52
2023/12/19 09:26:27;;;;;;;10.53;5.43;;;3.90;99.90;;;;;;4932642;29;20261;-56
2023/12/19 09:28:55;;;;;;;12.53;6.53;;;4.00;99.90;;;;;;4931479;29;20201;-50
2023/12/19 09:31:21;;;;;;;15.13;7.60;;;4.00;99.90;;;;;;4932274;29;20195;-53
2023/12/19 09:33:46;;;;;;;12.17;6.17;;;4.10;99.90;;;;;;4932212;29;20560;-50
2023/12/19 09:36:21;;;;;;;25.83;13.53;;;4.10;99.90;;;;;;4932010;29;20198;-51
2023/12/19 09:38:46;;;;;;;25.70;14.20;;;4.10;99.90;;;;;;4931432;29;20672;-52
2023/12/19 09:41:12;;;;;;;15.93;8.50;;;4.20;99.90;;;;;;4931994;29;20203;-54
2023/12/19 09:43:39;;;;;;;14.27;8.30;;;4.20;99.90;;;;;;4932122;28;20546;-53
2023/12/19 09:46:05;;;;;;;17.70;9.27;;;4.20;99.90;;;;;;4931845;29;20233;-54
2023/12/19 09:48:33;;;;;;;16.77;9.60;;;4.20;99.90;;;;;;4931828;29;20244;-51
2023/12/19 09:51:04;;;;;;;13.47;6.57;;;4.20;99.90;;;;;;4931795;29;20253;-51
2023/12/19 09:53:34;;;;;;;16.43;7.27;;;4.30;99.90;;;;;;4932914;29;20187;-50
2023/12/19 09:56:01;;;;;;;18.37;8.47;;;4.30;99.90;;;;;;4935596;29;20191;-52
2023/12/19 09:58:31;;;;;;;15.90;7.07;;;4.30;99.90;;;;;;4935449;29;20210;-58
2023/12/19 10:00:58;;;;;;;19.17;8.07;;;4.30;99.90;;;;;;4935290;29;20234;-51
2023/12/19 10:03:24;;;;;;;13.03;6.90;;;4.30;99.90;;;;;;4935628;29;20724;-49
2023/12/19 10:05:50;;;;;;;15.93;6.77;;;4.20;99.90;;;;;;4935716;29;20214;-51
2023/12/19 10:08:17;;;;;;;19.30;8.37;;;4.30;99.90;;;;;;4935543;29;20219;-52
2023/12/19 10:10:50;;;;;;;13.43;7.57;;;4.30;99.90;;;;;;4934695;29;20632;-55
2023/12/19 10:13:36;;;;;;;20.13;9.00;;;4.40;99.90;;;;;;4927786;29;20198;-56
2023/12/19 10:16:08;;;;;;;16.00;7.60;;;4.40;99.90;;;;;;4935206;29;20195;-52
2023/12/19 10:18:34;;;;;;;15.77;6.93;;;4.30;99.90;;;;;;4934502;29;20708;-52
2023/12/19 10:21:11;;;;;;;14.80;7.27;;;4.40;99.90;;;;;;4934929;29;20222;-56
2023/12/19 10:23:36;;;;;;;12.23;6.67;;;4.40;99.90;;;;;;4935291;29;20443;-52
2023/12/19 10:26:03;;;;;;;12.43;6.53;;;4.50;99.90;;;;;;4935059;29;20199;-51
2023/12/19 10:28:30;;;;;;;11.03;5.80;;;4.60;99.90;;;;;;4934168;29;20666;-55
2023/12/19 10:31:16;;;;;;;14.27;6.50;;;4.50;99.90;;;;;;4934993;29;20212;-54
2023/12/19 10:33:45;;;;;;;15.30;6.70;;;4.50;99.90;;;;;;4934770;29;20223;-52
2023/12/19 10:36:27;;;;;;;14.27;6.77;;;4.60;99.90;;;;;;4934841;29;20262;-56
2023/12/19 10:38:54;;;;;;;15.70;7.53;;;4.50;99.90;;;;;;4934170;29;20601;-55
2023/12/19 10:41:31;;;;;;;14.20;6.97;;;4.60;99.90;;;;;;4934751;29;20601;-54
2023/12/19 10:43:58;;;;;;;13.57;6.83;;;4.60;99.90;;;;;;4934754;29;20183;-55
2023/12/19 10:46:27;;;;;;;11.23;6.63;;;4.70;99.90;;;;;;4935069;29;20683;-55
2023/12/19 10:48:58;;;;;;;13.63;6.50;;;4.70;99.90;;;;;;4933805;29;20183;-51
2023/12/19 10:51:35;;;;;;;12.23;6.53;;;4.70;99.90;;;;;;4934520;29;20679;-55
2023/12/19 10:54:11;;;;;;;13.63;7.03;;;4.70;99.90;;;;;;4934884;29;20201;-53
2023/12/19 10:57:00;;;;;;;14.73;7.83;;;4.80;99.90;;;;;;4934820;29;20242;-55
2023/12/19 10:59:48;;;;;;;16.77;7.63;;;4.80;99.90;;;;;;4933681;29;20207;-52
2023/12/19 11:02:41;;;;;;;12.90;6.57;;;4.80;99.90;;;;;;4934114;29;20688;-57
2023/12/19 11:05:20;;;;;;;14.80;7.07;;;4.90;99.90;;;;;;4933710;29;20183;-53
2023/12/19 11:07:49;;;;;;;15.63;7.17;;;4.80;99.90;;;;;;4934409;29;20183;-57
2023/12/19 11:10:23;;;;;;;18.13;8.20;;;4.90;99.90;;;;;;4933434;29;20203;-57
2023/12/19 11:12:52;;;;;;;20.13;9.33;;;4.80;99.90;;;;;;4934294;29;20191;-54
2023/12/19 11:15:18;;;;;;;24.20;11.13;;;4.90;99.90;;;;;;4934314;29;20194;-56
2023/12/19 11:18:06;;;;;;;18.37;9.03;;;4.80;99.90;;;;;;4934655;29;20191;-58
2023/12/19 11:20:38;;;;;;;15.63;7.13;;;4.90;99.90;;;;;;4933511;29;20730;-56
2023/12/19 11:23:22;;;;;;;16.33;7.80;;;4.90;99.90;;;;;;4933972;29;20242;-54
2023/12/19 11:25:57;;;;;;;16.67;7.33;;;4.90;99.90;;;;;;4934186;29;20559;-55
2023/12/19 11:28:26;;;;;;;13.43;6.90;;;4.90;99.90;;;;;;4933763;29;20589;-56
2023/12/19 11:30:51;;;;;;;14.87;7.00;;;4.80;99.90;;;;;;4933473;29;20216;-54
2023/12/19 11:33:29;;;;;;;14.10;7.80;;;4.90;99.90;;;;;;4933939;29;20175;-54
2023/12/19 11:35:55;;;;;;;19.97;8.47;;;4.90;99.90;;;;;;4933609;29;20326;-56
2023/12/19 11:38:25;;;;;;;18.00;8.17;;;4.80;99.90;;;;;;4933746;29;20190;-55
2023/12/19 11:40:53;;;;;;;17.57;8.63;;;4.90;99.90;;;;;;4932946;29;20704;-55
2023/12/19 11:43:27;;;;;;;18.03;8.87;;;4.90;99.90;;;;;;4933723;29;20351;-54
2023/12/19 11:45:54;;;;;;;10.13;4.30;;;4.90;99.90;;;;;;4933641;29;20586;-51
2023/12/19 11:48:36;;;;;;;7.03;3.50;;;4.90;99.90;;;;;;4933379;29;20183;-55
2023/12/19 11:51:03;;;;;;;6.83;3.03;;;4.90;99.90;;;;;;4933474;29;20194;-52
2023/12/19 11:53:28;;;;;;;8.97;3.50;;;5.00;99.90;;;;;;4933544;29;20179;-54
2023/12/19 11:56:10;;;;;;;7.97;3.67;;;5.00;99.90;;;;;;4933071;29;20600;-52
2023/12/19 11:58:37;;;;;;;9.87;3.60;;;5.00;99.90;;;;;;4932891;29;20179;-56
2023/12/19 12:01:04;;;;;;;6.53;3.07;;;5.00;99.90;;;;;;4933196;29;20717;-57
2023/12/19 12:03:30;;;;;;;10.13;5.50;;;5.00;99.90;;;;;;4933719;29;20190;-55
2023/12/19 12:05:55;;;;;;;14.18;7.40;;;5.10;99.90;;;;;;4933271;29;20505;-62
2023/12/19 12:08:22;;;;;;;8.40;4.57;;;5.10;99.90;;;;;;4932180;29;20413;-56
2023/12/19 12:11:01;;;;;;;6.43;3.43;;;5.20;99.90;;;;;;4932635;29;20565;-55
2023/12/19 12:13:30;;;;;;;8.13;3.00;;;5.30;99.90;;;;;;4933169;29;20198;-58
2023/12/19 12:15:57;;;;;;;4.93;2.97;;;5.20;99.90;;;;;;4933079;29;20180;-54
2023/12/19 12:18:23;;;;;;;5.13;3.10;;;5.30;99.90;;;;;;4932460;29;20658;-58
2023/12/19 12:20:49;;;;;;;6.53;3.17;;;5.30;99.90;;;;;;4932459;29;20746;-57
2023/12/19 12:23:21;;;;;;;6.23;3.03;;;5.20;99.90;;;;;;4932727;29;20228;-55
2023/12/19 12:25:56;;;;;;;5.80;3.37;;;5.20;99.90;;;;;;4931988;29;20607;-54
2023/12/19 12:28:26;;;;;;;7.63;3.20;;;5.20;99.90;;;;;;4925971;29;20571;-58
2023/12/19 12:30:59;;;;;;;6.80;2.77;;;5.20;99.90;;;;;;4932757;29;20319;-60
2023/12/19 12:33:31;;;;;;;6.73;2.80;;;5.10;99.90;;;;;;4932906;29;20179;-60
2023/12/19 12:35:57;;;;;;;7.53;3.77;;;5.10;99.90;;;;;;4932903;29;20472;-59
2023/12/19 12:38:23;;;;;;;11.40;4.50;;;5.20;99.90;;;;;;4933233;29;20190;-58
2023/12/19 12:40:56;;;;;;;4.77;3.00;;;5.20;99.90;;;;;;4932729;29;20692;-59
2023/12/19 12:43:33;;;;;;;10.97;5.13;;;5.20;99.90;;;;;;4932898;29;20258;-59